Time;durP1;ratioP1;P1;durP2;ratioP2;P2;SDS_P1;SDS_P2;PMS_P1;PMS_P2;Temp;Humidity;BMP_temperature;BMP_pressure;BME280_temperature;BME280_humidity;BME280_pressure;Samples;Min_cycle;Max_cycle;Signal;HPM_P1;HPM_P2
2022/06/04 00:00:51;;;;;;;7.90;3.35;;;17.50;99.90;;;;;;5068423;28;20084;-64
2022/06/04 00:03:17;;;;;;;5.03;3.80;;;17.50;99.90;;;;;;5067381;28;20066;-64
2022/06/04 00:05:45;;;;;;;6.88;3.53;;;17.50;99.90;;;;;;5069189;28;20067;-64
2022/06/04 00:08:11;;;;;;;3.60;3.28;;;17.50;99.90;;;;;;5067633;28;20136;-63
2022/06/04 00:16:14;;;;;;;7.13;3.88;;;17.50;99.90;;;;;;5068506;28;20474;-64
2022/06/04 00:18:41;;;;;;;8.70;3.38;;;17.40;99.90;;;;;;5067892;28;20032;-64
2022/06/04 00:21:08;;;;;;;7.20;4.05;;;17.40;99.90;;;;;;5068734;28;20025;-64
2022/06/04 00:23:34;;;;;;;5.60;3.33;;;17.30;99.90;;;;;;5068016;28;20031;-64
2022/06/04 00:26:02;;;;;;;4.35;3.47;;;17.20;99.90;;;;;;5066805;28;20032;-64
2022/06/04 00:28:28;;;;;;;4.22;3.72;;;17.10;99.90;;;;;;5069561;28;20384;-64
2022/06/04 00:30:55;;;;;;;5.78;3.83;;;17.10;99.90;;;;;;5065625;28;20036;-63
2022/06/04 00:33:21;;;;;;;4.10;3.55;;;17.10;99.90;;;;;;5066515;28;20020;-64
2022/06/04 00:35:50;;;;;;;6.97;3.67;;;17.00;99.90;;;;;;5067639;28;20029;-64
2022/06/04 00:38:18;;;;;;;5.00;3.80;;;17.00;99.90;;;;;;5067265;28;20214;-64
2022/06/04 00:40:44;;;;;;;5.05;3.75;;;17.00;99.90;;;;;;5066244;28;20016;-64
2022/06/04 00:43:10;;;;;;;5.80;4.07;;;16.90;99.90;;;;;;5068204;28;20033;-65
2022/06/04 00:45:35;;;;;;;7.18;3.75;;;16.90;99.90;;;;;;5065848;28;20025;-64
2022/06/04 00:48:05;;;;;;;8.27;4.53;;;16.80;99.90;;;;;;5066262;28;20445;-64
2022/06/04 00:50:34;;;;;;;4.75;4.00;;;16.80;99.90;;;;;;5065858;28;20024;-64
2022/06/04 00:53:02;;;;;;;5.28;4.38;;;16.80;99.90;;;;;;5063436;28;20063;-64
2022/06/04 00:55:39;;;;;;;5.32;3.72;;;16.80;99.90;;;;;;5068433;28;20179;-65
2022/06/04 00:58:22;;;;;;;4.32;3.92;;;16.90;99.90;;;;;;5068528;28;20033;-64
2022/06/04 01:01:00;;;;;;;6.05;3.60;;;16.90;99.90;;;;;;5065446;28;20086;-65
2022/06/04 01:03:50;;;;;;;6.57;4.20;;;16.90;99.90;;;;;;5062870;28;20056;-65
2022/06/04 01:06:23;;;;;;;7.43;4.32;;;16.90;99.90;;;;;;5063448;28;20451;-64
2022/06/04 01:09:24;;;;;;;4.25;3.85;;;16.80;99.90;;;;;;5063463;28;20021;-64
2022/06/04 01:12:11;;;;;;;5.10;3.83;;;16.90;99.90;;;;;;5063486;28;20044;-65
2022/06/04 01:15:02;;;;;;;5.75;4.00;;;16.90;99.90;;;;;;5067269;28;20513;-66
2022/06/04 01:17:53;;;;;;;5.32;4.03;;;16.80;99.90;;;;;;5063932;28;20036;-64
2022/06/04 01:20:40;;;;;;;5.35;4.35;;;16.80;99.90;;;;;;5063873;28;20099;-63
2022/06/04 01:23:38;;;;;;;5.60;4.43;;;16.80;99.90;;;;;;5065264;28;20044;-64
2022/06/04 01:26:38;;;;;;;6.13;3.85;;;16.70;99.90;;;;;;5048866;28;20111;-63
2022/06/04 01:29:19;;;;;;;7.53;4.38;;;16.80;99.90;;;;;;5064632;28;20029;-63
2022/06/04 01:31:58;;;;;;;5.30;3.97;;;16.90;99.90;;;;;;5081297;28;20028;-63
2022/06/04 01:34:31;;;;;;;4.90;3.75;;;16.90;99.90;;;;;;5067121;28;20031;-64
2022/06/04 01:37:03;;;;;;;7.93;4.53;;;17.00;99.90;;;;;;5065829;28;20128;-65
2022/06/04 01:41:03;;;;;;;5.18;3.58;;;17.00;99.90;;;;;;5067695;28;20031;-64
2022/06/04 01:42:21;;;;;;;5.15;3.20;;;17.10;99.90;;;;;;5061745;28;20403;-64
2022/06/04 01:44:50;;;;;;;7.20;3.97;;;17.10;99.90;;;;;;5062365;28;20485;-65
2022/06/04 01:47:17;;;;;;;3.97;2.92;;;17.20;99.90;;;;;;5064063;28;20024;-65
2022/06/04 01:49:46;;;;;;;3.47;3.17;;;17.20;99.90;;;;;;5065689;28;20020;-64
2022/06/04 01:52:39;;;;;;;6.40;3.45;;;17.20;99.90;;;;;;5064328;28;20036;-66
2022/06/04 01:55:14;;;;;;;3.97;3.25;;;17.20;99.90;;;;;;5063764;28;20044;-64
2022/06/04 01:57:43;;;;;;;5.40;3.85;;;17.30;99.90;;;;;;5065215;28;20027;-65
2022/06/04 02:00:19;;;;;;;5.82;3.22;;;17.20;99.90;;;;;;5068594;28;20017;-64
2022/06/04 02:02:54;;;;;;;5.22;3.95;;;17.20;99.90;;;;;;5066748;28;20410;-65
2022/06/04 02:05:27;;;;;;;4.60;3.92;;;17.20;99.90;;;;;;5069736;28;20070;-65
2022/06/04 02:07:55;;;;;;;6.55;3.88;;;17.20;99.90;;;;;;5071714;28;20371;-64
2022/06/04 02:10:24;;;;;;;6.85;3.75;;;17.30;99.90;;;;;;5069617;28;20930;-65
2022/06/04 02:12:55;;;;;;;4.57;3.15;;;17.20;99.90;;;;;;5068443;28;20085;-64
2022/06/04 02:15:25;;;;;;;4.28;3.30;;;17.20;99.90;;;;;;5069566;28;20108;-64
2022/06/04 02:17:56;;;;;;;5.38;3.80;;;17.20;99.90;;;;;;5066307;28;20498;-65
2022/06/04 02:20:23;;;;;;;5.03;3.67;;;17.30;99.90;;;;;;5070598;28;20095;-64
2022/06/04 02:22:49;;;;;;;5.13;3.70;;;17.30;99.90;;;;;;5071217;28;20027;-64
2022/06/04 02:25:15;;;;;;;3.80;3.35;;;17.30;99.90;;;;;;5071075;28;20378;-64
2022/06/04 02:27:43;;;;;;;4.57;3.80;;;17.30;99.90;;;;;;5071515;28;20017;-64
2022/06/04 02:30:10;;;;;;;5.28;3.55;;;17.30;99.90;;;;;;5067524;28;20559;-64
2022/06/04 02:32:54;;;;;;;5.10;3.92;;;17.30;99.90;;;;;;5070797;28;20036;-64
2022/06/04 02:35:24;;;;;;;7.80;3.55;;;17.30;99.90;;;;;;5070761;28;20024;-64
2022/06/04 02:38:16;;;;;;;4.53;4.13;;;17.30;99.90;;;;;;5072203;28;20586;-64
2022/06/04 02:40:48;;;;;;;4.03;3.63;;;17.30;99.90;;;;;;5069466;28;20028;-64
2022/06/04 02:43:32;;;;;;;6.93;3.55;;;17.30;99.90;;;;;;5066546;28;20391;-64
2022/06/04 02:46:13;;;;;;;4.28;3.58;;;17.30;99.90;;;;;;5067594;28;20765;-65
2022/06/04 02:48:44;;;;;;;12.23;4.57;;;17.30;99.90;;;;;;5069559;28;20032;-64
2022/06/04 02:51:40;;;;;;;4.13;3.70;;;17.30;99.90;;;;;;5071063;28;20031;-65
2022/06/04 02:54:10;;;;;;;9.07;4.13;;;17.20;99.90;;;;;;5068258;28;20035;-64
2022/06/04 02:56:38;;;;;;;4.15;3.47;;;17.20;99.90;;;;;;5066502;28;20699;-65
2022/06/04 02:59:08;;;;;;;5.32;4.07;;;17.20;99.90;;;;;;5070706;28;20041;-64
2022/06/04 03:01:45;;;;;;;7.97;3.97;;;17.20;99.90;;;;;;5066683;28;20043;-65
2022/06/04 03:04:11;;;;;;;12.10;4.22;;;17.10;99.90;;;;;;5067476;28;20028;-65
2022/06/04 03:06:37;;;;;;;4.00;3.50;;;17.10;99.90;;;;;;5066177;28;20031;-64
2022/06/04 03:09:07;;;;;;;5.15;4.22;;;17.10;99.90;;;;;;5065396;28;20039;-64
2022/06/04 03:11:43;;;;;;;4.45;3.50;;;17.10;99.90;;;;;;5067799;28;20314;-65
2022/06/04 03:14:09;;;;;;;4.72;3.80;;;17.10;99.90;;;;;;5069340;28;20033;-64
2022/06/04 03:16:36;;;;;;;6.25;4.40;;;17.10;99.90;;;;;;5068808;28;20032;-64
2022/06/04 03:19:03;;;;;;;6.47;3.85;;;17.10;99.90;;;;;;5069032;28;20501;-64
2022/06/04 03:21:29;;;;;;;4.90;4.00;;;17.00;99.90;;;;;;5070701;28;20029;-64
2022/06/04 03:23:55;;;;;;;5.82;3.97;;;17.00;99.90;;;;;;5068710;28;20509;-63
2022/06/04 03:26:21;;;;;;;5.80;3.47;;;17.00;99.90;;;;;;5069037;28;20103;-64
2022/06/04 03:28:47;;;;;;;5.95;3.92;;;17.00;99.90;;;;;;5069555;28;20028;-64
2022/06/04 03:31:12;;;;;;;6.78;4.10;;;17.00;99.90;;;;;;5067071;28;20028;-65
2022/06/04 03:33:38;;;;;;;5.57;4.22;;;17.00;99.90;;;;;;5062748;28;20028;-64
2022/06/04 03:36:04;;;;;;;6.53;4.43;;;17.00;99.90;;;;;;5070349;28;20037;-64
2022/06/04 03:38:30;;;;;;;5.22;3.67;;;17.00;99.90;;;;;;5069803;28;20406;-64
2022/06/04 03:40:55;;;;;;;9.55;4.32;;;17.00;99.90;;;;;;5069097;28;20016;-64
2022/06/04 03:43:21;;;;;;;4.28;3.72;;;17.00;99.90;;;;;;5067842;28;21493;-64
2022/06/04 03:45:46;;;;;;;5.10;4.55;;;17.00;99.90;;;;;;5069193;28;20490;-64
2022/06/04 03:48:12;;;;;;;7.28;3.95;;;17.00;99.90;;;;;;5065684;28;20020;-64
2022/06/04 03:50:38;;;;;;;4.85;4.18;;;17.00;99.90;;;;;;5068705;28;20494;-62
2022/06/04 03:53:04;;;;;;;7.13;4.75;;;17.00;99.90;;;;;;5067079;28;20025;-64
2022/06/04 03:55:30;;;;;;;8.55;4.75;;;17.00;99.90;;;;;;5070495;28;20023;-64
2022/06/04 03:57:55;;;;;;;10.10;4.30;;;17.00;99.90;;;;;;5071076;28;20111;-65
2022/06/04 04:00:21;;;;;;;4.88;4.38;;;17.00;99.90;;;;;;5066660;28;20051;-64
2022/06/04 04:02:53;;;;;;;5.30;4.10;;;17.00;99.90;;;;;;5069402;28;20052;-64
2022/06/04 04:05:25;;;;;;;5.13;4.63;;;17.00;99.90;;;;;;5068167;28;20024;-64
2022/06/04 04:07:51;;;;;;;5.30;4.47;;;17.00;99.90;;;;;;5068519;28;20061;-63
2022/06/04 04:10:18;;;;;;;6.07;4.53;;;17.00;99.90;;;;;;5070703;28;20059;-64
2022/06/04 04:12:44;;;;;;;6.25;4.65;;;17.00;99.90;;;;;;5069124;28;20086;-64
2022/06/04 04:15:11;;;;;;;6.13;4.32;;;17.00;99.90;;;;;;5067536;28;20466;-65
2022/06/04 04:17:39;;;;;;;6.10;4.53;;;17.00;99.90;;;;;;5069024;28;20306;-64
2022/06/04 04:20:14;;;;;;;8.20;4.05;;;16.80;99.90;;;;;;5068009;28;20009;-64
2022/06/04 04:22:40;;;;;;;10.05;4.93;;;16.60;99.90;;;;;;5071082;28;20038;-64
2022/06/04 04:25:07;;;;;;;5.80;4.70;;;16.40;99.90;;;;;;5067783;28;20036;-65
2022/06/04 04:27:33;;;;;;;7.10;4.28;;;16.50;99.90;;;;;;5071027;28;20052;-64
2022/06/04 04:29:58;;;;;;;6.55;4.93;;;16.50;99.90;;;;;;5069565;28;20485;-64
2022/06/04 04:32:24;;;;;;;5.60;4.10;;;16.50;99.90;;;;;;5068716;28;20140;-64
2022/06/04 04:34:50;;;;;;;5.82;4.63;;;16.50;99.90;;;;;;5069824;28;20486;-64
2022/06/04 04:37:15;;;;;;;5.03;4.43;;;16.60;99.90;;;;;;5069878;28;20479;-64
2022/06/04 04:39:41;;;;;;;5.55;4.10;;;16.60;99.90;;;;;;5070022;28;20081;-65
2022/06/04 04:42:06;;;;;;;4.60;4.07;;;16.60;99.90;;;;;;5067507;28;20028;-64
2022/06/04 04:44:33;;;;;;;7.78;4.43;;;16.60;99.90;;;;;;5064642;28;20029;-64
2022/06/04 04:46:58;;;;;;;5.82;4.18;;;16.50;99.90;;;;;;5067914;28;20028;-65
2022/06/04 04:49:24;;;;;;;6.13;4.75;;;16.50;99.90;;;;;;5063983;28;20092;-65
2022/06/04 04:51:50;;;;;;;7.70;4.35;;;16.40;99.90;;;;;;5102423;22;20139;-62
2022/06/04 04:54:16;;;;;;;5.47;3.88;;;16.50;99.90;;;;;;5085900;28;20127;-63
2022/06/04 04:56:42;;;;;;;6.43;4.45;;;16.50;99.90;;;;;;5087292;28;20027;-63
2022/06/04 04:59:08;;;;;;;5.68;4.10;;;16.50;99.90;;;;;;5082429;28;20028;-63
2022/06/04 05:01:34;;;;;;;5.90;3.47;;;16.50;99.90;;;;;;5079773;28;20594;-62
2022/06/04 05:04:00;;;;;;;5.00;4.13;;;16.50;99.90;;;;;;5067391;28;20538;-62
2022/06/04 05:06:25;;;;;;;7.85;4.22;;;16.60;99.90;;;;;;5068214;28;20066;-63
2022/06/04 05:08:52;;;;;;;4.25;3.72;;;16.60;99.90;;;;;;5069229;28;20426;-62
2022/06/04 05:11:29;;;;;;;6.93;3.97;;;16.60;99.90;;;;;;5065051;28;20390;-62
2022/06/04 05:13:56;;;;;;;7.38;3.63;;;16.60;99.90;;;;;;5064401;28;20071;-64
2022/06/04 05:16:26;;;;;;;5.82;3.88;;;16.70;99.90;;;;;;5068027;28;20020;-65
2022/06/04 05:18:51;;;;;;;7.70;4.20;;;16.70;99.90;;;;;;5068418;28;20028;-63
2022/06/04 05:21:42;;;;;;;5.22;3.50;;;16.70;99.90;;;;;;5067609;28;20059;-61
2022/06/04 05:24:15;;;;;;;5.90;4.75;;;16.70;99.90;;;;;;5067647;28;20263;-62
2022/06/04 05:26:40;;;;;;;6.80;3.55;;;16.70;99.90;;;;;;5069454;28;20104;-63
2022/06/04 05:29:06;;;;;;;5.43;3.63;;;16.70;99.90;;;;;;5065460;28;20052;-62
2022/06/04 05:31:31;;;;;;;5.90;4.07;;;16.70;99.90;;;;;;5067095;28;20450;-61
2022/06/04 05:33:57;;;;;;;6.18;3.67;;;16.80;99.90;;;;;;5065558;28;20048;-61
2022/06/04 05:36:23;;;;;;;4.93;3.40;;;16.80;99.90;;;;;;5066668;28;20399;-64
2022/06/04 05:38:48;;;;;;;4.78;4.05;;;16.90;99.90;;;;;;5071141;28;20043;-60
2022/06/04 05:41:14;;;;;;;5.13;3.75;;;16.90;99.90;;;;;;5067434;28;20036;-61
2022/06/04 05:43:40;;;;;;;9.20;4.22;;;17.00;99.90;;;;;;5068380;28;20029;-62
2022/06/04 05:46:08;;;;;;;5.97;4.20;;;17.10;99.90;;;;;;5067801;28;20028;-62
2022/06/04 05:48:44;;;;;;;5.10;3.88;;;17.20;99.90;;;;;;5067091;28;20040;-62
2022/06/04 05:51:12;;;;;;;5.40;3.95;;;17.30;99.90;;;;;;5067727;28;20040;-62
2022/06/04 05:53:38;;;;;;;5.68;4.10;;;17.40;99.90;;;;;;5068298;28;20032;-62
2022/06/04 05:56:11;;;;;;;14.32;4.07;;;17.50;99.90;;;;;;5067318;28;20032;-63
2022/06/04 05:58:36;;;;;;;11.57;4.13;;;17.60;99.90;;;;;;5067422;28;20103;-62
2022/06/04 06:01:02;;;;;;;6.13;4.10;;;17.70;99.90;;;;;;5067522;28;20103;-63
2022/06/04 06:03:28;;;;;;;6.03;3.97;;;17.80;99.90;;;;;;5068599;28;20094;-62
2022/06/04 06:05:53;;;;;;;7.43;3.75;;;17.80;99.90;;;;;;5063671;28;20025;-62
2022/06/04 06:08:19;;;;;;;6.90;4.15;;;17.90;99.90;;;;;;5067711;28;20823;-62
2022/06/04 06:10:44;;;;;;;7.03;4.50;;;17.90;99.90;;;;;;5066250;28;20035;-62
2022/06/04 06:13:11;;;;;;;6.75;4.10;;;17.90;99.90;;;;;;5062245;28;20028;-62
2022/06/04 06:15:38;;;;;;;8.50;4.22;;;18.00;99.90;;;;;;5055316;28;20429;-62
2022/06/04 06:18:05;;;;;;;10.30;5.65;;;18.00;99.90;;;;;;5067564;28;20046;-63
2022/06/04 06:20:31;;;;;;;7.78;4.90;;;18.00;99.90;;;;;;5065615;28;20093;-62
2022/06/04 06:22:57;;;;;;;7.65;4.75;;;18.00;99.90;;;;;;5068323;28;20034;-62
2022/06/04 06:25:24;;;;;;;11.30;5.03;;;18.00;99.90;;;;;;5062687;28;20024;-63
2022/06/04 06:27:50;;;;;;;5.57;4.68;;;18.00;99.90;;;;;;5064263;28;20109;-63
2022/06/04 06:30:15;;;;;;;5.65;4.53;;;18.10;99.90;;;;;;5064788;28;20108;-64
2022/06/04 06:32:42;;;;;;;5.60;4.10;;;18.20;99.90;;;;;;5063852;28;20033;-63
2022/06/04 06:35:08;;;;;;;9.98;3.83;;;18.30;99.90;;;;;;5064580;28;20038;-63
2022/06/04 06:37:34;;;;;;;6.68;4.70;;;18.30;99.90;;;;;;5067685;28;20032;-63
2022/06/04 06:40:00;;;;;;;5.88;4.88;;;18.30;99.90;;;;;;5061733;28;20028;-63
2022/06/04 06:42:26;;;;;;;7.00;5.10;;;18.30;99.90;;;;;;5063102;28;20505;-64
2022/06/04 06:44:53;;;;;;;7.47;4.55;;;18.30;99.90;;;;;;5067006;28;20119;-63
2022/06/04 06:47:19;;;;;;;5.45;4.38;;;18.30;99.90;;;;;;5070511;28;20032;-62
2022/06/04 06:49:44;;;;;;;7.70;4.53;;;18.40;99.90;;;;;;5070544;28;20029;-62
2022/06/04 06:52:10;;;;;;;6.85;4.40;;;18.50;99.90;;;;;;5070728;28;20021;-64
2022/06/04 06:54:37;;;;;;;6.57;4.43;;;18.50;99.90;;;;;;5075082;28;20024;-62
2022/06/04 06:57:05;;;;;;;5.57;4.90;;;18.60;99.90;;;;;;5073962;28;20036;-63
2022/06/04 06:59:31;;;;;;;6.60;5.13;;;18.70;99.90;;;;;;5074754;28;20067;-63
2022/06/04 07:01:58;;;;;;;6.03;3.88;;;18.70;99.90;;;;;;5072131;28;20079;-63
2022/06/04 07:04:25;;;;;;;7.63;4.13;;;18.70;99.90;;;;;;5079113;28;20367;-62
2022/06/04 07:06:55;;;;;;;6.10;4.38;;;18.90;99.90;;;;;;5068806;28;20042;-61
2022/06/04 07:09:24;;;;;;;4.82;4.15;;;18.90;99.90;;;;;;5081489;28;20043;-64
2022/06/04 07:11:50;;;;;;;5.95;4.30;;;19.00;99.90;;;;;;5076934;28;20054;-64
2022/06/04 07:14:18;;;;;;;6.57;4.32;;;19.00;99.90;;;;;;5077144;28;20028;-64
2022/06/04 07:16:44;;;;;;;6.28;4.93;;;19.10;99.90;;;;;;5072266;28;20039;-65
2022/06/04 07:19:14;;;;;;;7.63;4.80;;;19.00;99.90;;;;;;5071645;28;20130;-63
2022/06/04 07:21:41;;;;;;;7.75;4.72;;;19.00;99.90;;;;;;5069134;28;20037;-64
2022/06/04 07:24:07;;;;;;;7.07;4.25;;;19.20;99.90;;;;;;5077826;28;20399;-64
2022/06/04 07:26:33;;;;;;;5.10;4.53;;;19.30;99.90;;;;;;5072710;28;20040;-65
2022/06/04 07:28:59;;;;;;;7.18;4.55;;;19.40;99.90;;;;;;5070067;28;20095;-64
2022/06/04 07:31:25;;;;;;;4.95;4.45;;;19.50;99.90;;;;;;5070731;28;20108;-57
2022/06/04 07:33:52;;;;;;;6.47;4.07;;;19.40;99.90;;;;;;5071009;28;20498;-61
2022/06/04 07:36:22;;;;;;;7.38;3.97;;;19.50;99.90;;;;;;5073165;28;20572;-59
2022/06/04 07:38:48;;;;;;;13.63;4.60;;;19.60;99.90;;;;;;5073995;28;20103;-58
2022/06/04 07:41:17;;;;;;;8.25;4.97;;;19.60;99.90;;;;;;5073786;28;20108;-60
2022/06/04 07:43:43;;;;;;;5.40;4.68;;;19.60;99.90;;;;;;5074078;28;20025;-58
2022/06/04 07:46:08;;;;;;;5.05;4.25;;;19.50;99.90;;;;;;5071083;28;20043;-62
2022/06/04 07:48:34;;;;;;;6.55;4.60;;;19.60;99.90;;;;;;5055329;28;20082;-59
2022/06/04 07:51:02;;;;;;;5.25;4.22;;;19.60;99.90;;;;;;5070255;28;20025;-59
2022/06/04 07:53:27;;;;;;;6.43;4.75;;;19.60;99.90;;;;;;5068750;28;20037;-61
2022/06/04 07:55:53;;;;;;;7.60;4.65;;;19.70;99.90;;;;;;5062722;28;20038;-57
2022/06/04 07:58:18;;;;;;;8.68;4.70;;;19.70;99.90;;;;;;5060472;28;20040;-58
2022/06/04 08:00:44;;;;;;;6.68;4.60;;;19.80;99.90;;;;;;5065584;28;20025;-58
2022/06/04 08:03:10;;;;;;;6.00;4.40;;;19.80;99.90;;;;;;5062698;28;20033;-56
2022/06/04 08:05:36;;;;;;;5.38;4.88;;;19.80;99.90;;;;;;5070139;28;20029;-58
2022/06/04 08:08:02;;;;;;;7.45;5.25;;;19.90;99.90;;;;;;5066686;28;20047;-59
2022/06/04 08:10:27;;;;;;;12.80;4.80;;;20.00;99.90;;;;;;5071214;28;20027;-60
2022/06/04 08:12:58;;;;;;;8.30;3.97;;;20.20;99.90;;;;;;5068437;28;20386;-57
2022/06/04 08:15:24;;;;;;;7.50;5.30;;;20.20;99.90;;;;;;5066189;28;20100;-56
2022/06/04 08:17:49;;;;;;;8.93;4.65;;;20.30;99.90;;;;;;5070791;28;20405;-53
2022/06/04 08:20:15;;;;;;;5.35;4.43;;;20.30;99.90;;;;;;5070427;28;20024;-56
2022/06/04 08:22:41;;;;;;;6.60;5.25;;;20.40;99.90;;;;;;5070638;28;20505;-57
2022/06/04 08:25:07;;;;;;;7.47;4.95;;;20.30;99.90;;;;;;5070685;28;20024;-55
2022/06/04 08:27:32;;;;;;;5.30;4.45;;;20.30;99.90;;;;;;5068970;28;20063;-58
2022/06/04 08:29:58;;;;;;;9.00;5.22;;;20.30;99.90;;;;;;5071415;28;20143;-54
2022/06/04 08:32:23;;;;;;;8.15;5.30;;;20.30;99.90;;;;;;5071384;28;20044;-54
2022/06/04 08:34:49;;;;;;;6.03;4.68;;;20.40;99.90;;;;;;5067339;28;20031;-59
2022/06/04 08:37:16;;;;;;;11.52;5.47;;;20.40;99.90;;;;;;5068875;28;20033;-61
2022/06/04 08:39:41;;;;;;;9.77;4.85;;;20.40;99.90;;;;;;5070805;28;20033;-59
2022/06/04 08:42:10;;;;;;;6.43;4.63;;;20.50;99.90;;;;;;5070777;28;20044;-58
2022/06/04 08:44:38;;;;;;;8.27;4.80;;;20.70;99.90;;;;;;5070768;28;21716;-59
2022/06/04 08:47:35;;;;;;;6.88;4.32;;;20.90;99.90;;;;;;5068974;28;20021;-61
2022/06/04 08:50:10;;;;;;;8.18;4.65;;;21.10;99.90;;;;;;5070094;28;20090;-57
2022/06/04 08:52:46;;;;;;;7.68;4.90;;;21.10;99.90;;;;;;5063527;28;20556;-58
2022/06/04 08:58:26;;;;;;;6.60;4.90;;;21.10;99.90;;;;;;5066628;28;20055;-59
2022/06/04 09:00:57;;;;;;;9.35;4.78;;;21.20;99.90;;;;;;5061585;28;20021;-58
2022/06/04 09:04:03;;;;;;;7.50;4.85;;;21.20;99.90;;;;;;5064632;28;20021;-55
2022/06/04 09:06:43;;;;;;;6.13;4.60;;;21.30;99.90;;;;;;5063996;28;20036;-60
2022/06/04 09:09:33;;;;;;;6.35;4.20;;;21.60;99.90;;;;;;5067431;28;20031;-60
2022/06/04 09:12:14;;;;;;;9.18;4.20;;;21.90;99.90;;;;;;5068252;28;20021;-59
2022/06/04 09:14:45;;;;;;;11.55;5.20;;;22.10;99.90;;;;;;5065704;28;20028;-57
2022/06/04 09:17:25;;;;;;;9.63;4.53;;;22.10;99.90;;;;;;5068321;28;20551;-54
2022/06/04 09:19:56;;;;;;;7.60;4.60;;;22.20;99.90;;;;;;5066071;28;20029;-59
2022/06/04 09:22:43;;;;;;;6.18;4.70;;;22.40;99.90;;;;;;5067433;28;20108;-59
2022/06/04 09:25:13;;;;;;;6.40;4.95;;;22.30;99.90;;;;;;5065779;28;20273;-60
2022/06/04 09:28:01;;;;;;;9.65;4.78;;;22.10;99.90;;;;;;5052377;28;20021;-58
2022/06/04 09:30:55;;;;;;;7.28;5.03;;;22.10;99.90;;;;;;5065517;28;20487;-58
2022/06/04 09:33:45;;;;;;;7.50;5.00;;;22.30;99.90;;;;;;5064366;28;20048;-61
2022/06/04 09:36:12;;;;;;;7.20;4.60;;;22.30;99.90;;;;;;5064597;28;20037;-61
2022/06/04 09:38:37;;;;;;;5.72;4.35;;;22.40;99.90;;;;;;5067418;28;20502;-60
2022/06/04 09:41:18;;;;;;;7.93;4.68;;;22.40;99.90;;;;;;5067622;28;20067;-57
2022/06/04 09:44:07;;;;;;;9.45;4.70;;;22.40;99.90;;;;;;5066210;28;20483;-58
2022/06/04 09:46:34;;;;;;;9.25;4.18;;;22.40;99.90;;;;;;5063242;28;20028;-56
2022/06/04 09:49:03;;;;;;;9.27;4.72;;;22.60;99.90;;;;;;5063885;28;20104;-59
2022/06/04 09:51:40;;;;;;;6.47;4.40;;;22.90;99.90;;;;;;5064485;28;20025;-62
2022/06/04 09:54:06;;;;;;;6.60;4.05;;;23.00;99.90;;;;;;5064915;28;20047;-55
2022/06/04 09:56:41;;;;;;;6.30;4.75;;;23.00;99.90;;;;;;5061867;28;20101;-59
2022/06/04 09:59:29;;;;;;;6.32;4.10;;;22.80;99.90;;;;;;5057406;28;20036;-61
2022/06/04 10:02:16;;;;;;;7.70;5.18;;;22.60;99.90;;;;;;5059477;28;20040;-58
2022/06/04 10:04:47;;;;;;;5.35;4.53;;;22.70;99.90;;;;;;5054935;28;20047;-57
2022/06/04 10:07:33;;;;;;;5.75;4.28;;;22.70;99.90;;;;;;5062832;28;20047;-59
2022/06/04 10:10:08;;;;;;;7.95;4.07;;;22.90;99.90;;;;;;5061192;28;20041;-60
2022/06/04 10:15:38;;;;;;;5.70;4.05;;;22.70;99.90;;;;;;5063709;28;20036;-60
2022/06/04 10:18:18;;;;;;;6.15;4.85;;;22.50;99.90;;;;;;5066760;28;20076;-62
2022/06/04 10:21:03;;;;;;;6.07;4.35;;;22.60;99.90;;;;;;5077084;28;20022;-58
2022/06/04 10:23:41;;;;;;;5.10;4.43;;;22.60;99.90;;;;;;5074012;28;20462;-59
2022/06/04 10:26:18;;;;;;;6.75;4.50;;;22.70;99.90;;;;;;5072114;28;20544;-59
2022/06/04 10:29:21;;;;;;;8.77;4.93;;;23.00;99.90;;;;;;5074411;28;20025;-59
2022/06/04 10:32:17;;;;;;;5.25;4.28;;;23.10;99.90;;;;;;5067975;28;20021;-60
2022/06/04 10:34:45;;;;;;;7.30;4.70;;;23.10;99.90;;;;;;5073032;28;20028;-54
2022/06/04 10:37:40;;;;;;;8.52;5.28;;;23.00;99.90;;;;;;5070116;28;20033;-54
2022/06/04 10:40:36;;;;;;;8.02;5.00;;;23.20;99.90;;;;;;5072783;28;20043;-59
2022/06/04 10:43:41;;;;;;;9.15;5.20;;;23.30;99.90;;;;;;5072435;28;20055;-57
2022/06/04 10:46:35;;;;;;;10.70;5.67;;;23.20;99.90;;;;;;5064869;28;20037;-57
2022/06/04 10:49:23;;;;;;;7.80;5.55;;;23.40;99.90;;;;;;5071016;28;20098;-60
2022/06/04 10:52:14;;;;;;;6.60;4.22;;;23.50;99.90;;;;;;5069658;28;20033;-57
2022/06/04 10:54:43;;;;;;;6.38;5.18;;;23.40;99.90;;;;;;5062876;28;20025;-58
2022/06/04 10:57:17;;;;;;;6.28;4.90;;;23.40;99.90;;;;;;5070641;28;20032;-53
2022/06/04 10:59:59;;;;;;;6.43;4.80;;;23.40;99.90;;;;;;5069433;28;20032;-59
2022/06/04 11:02:53;;;;;;;6.25;4.95;;;23.40;99.90;;;;;;5070138;28;20025;-59
2022/06/04 11:05:31;;;;;;;8.95;4.88;;;23.50;99.90;;;;;;5070797;28;20107;-63
2022/06/04 11:08:07;;;;;;;4.68;4.00;;;23.60;99.90;;;;;;5070823;28;20073;-58
2022/06/04 11:10:39;;;;;;;5.70;4.93;;;23.80;99.90;;;;;;5072284;28;20044;-58
2022/06/04 11:13:15;;;;;;;9.32;4.70;;;24.40;99.90;;;;;;5069582;28;20552;-62
2022/06/04 11:15:50;;;;;;;5.78;5.20;;;24.90;99.90;;;;;;5068299;28;20465;-61
2022/06/04 11:18:32;;;;;;;6.60;5.53;;;25.50;99.90;;;;;;5069527;28;20016;-60
2022/06/04 11:21:05;;;;;;;7.90;4.68;;;25.70;99.90;;;;;;5072446;28;20108;-61
2022/06/04 11:23:49;;;;;;;7.38;5.05;;;26.00;99.90;;;;;;5070946;28;20028;-59
2022/06/04 11:26:34;;;;;;;6.77;5.03;;;26.10;99.90;;;;;;5072098;28;20463;-59
2022/06/04 11:29:03;;;;;;;5.68;5.00;;;26.20;99.90;;;;;;5071655;28;20040;-61
2022/06/04 11:31:45;;;;;;;5.03;4.47;;;26.40;99.90;;;;;;5070672;28;20526;-61
2022/06/04 11:34:30;;;;;;;9.68;5.20;;;26.50;99.90;;;;;;5071110;28;20040;-62
2022/06/04 11:37:16;;;;;;;8.02;5.40;;;26.20;99.90;;;;;;5070497;28;20107;-64
2022/06/04 11:40:04;;;;;;;8.35;5.90;;;26.20;99.90;;;;;;5067243;28;20040;-60
2022/06/04 11:42:52;;;;;;;7.03;5.00;;;26.50;99.90;;;;;;5068753;28;20031;-58
2022/06/04 11:45:44;;;;;;;5.53;4.70;;;26.60;99.90;;;;;;5053269;28;20615;-61
2022/06/04 11:48:30;;;;;;;8.77;6.20;;;26.80;99.90;;;;;;5070363;28;20048;-64
2022/06/04 11:51:17;;;;;;;5.50;4.63;;;26.60;99.90;;;;;;5071585;28;20234;-63
2022/06/04 11:54:04;;;;;;;6.20;5.18;;;26.60;99.90;;;;;;5069610;28;20055;-63
2022/06/04 11:56:45;;;;;;;6.43;5.03;;;26.90;99.90;;;;;;5068692;28;20020;-64
2022/06/04 11:59:16;;;;;;;4.97;4.57;;;27.00;99.90;;;;;;5071268;28;20032;-63
2022/06/04 12:01:48;;;;;;;11.55;5.20;;;27.30;99.90;;;;;;5071950;28;20032;-63
2022/06/04 12:04:16;;;;;;;5.88;5.07;;;27.60;99.90;;;;;;5071636;28;20090;-62
2022/06/04 12:06:44;;;;;;;5.28;4.70;;;27.80;99.90;;;;;;5069211;28;20021;-62
2022/06/04 12:09:15;;;;;;;6.68;4.78;;;27.40;99.90;;;;;;5063928;28;20048;-63
2022/06/04 12:11:50;;;;;;;4.15;3.80;;;27.30;99.90;;;;;;5068296;28;20032;-62
2022/06/04 12:15:02;;;;;;;8.05;4.45;;;27.30;99.90;;;;;;5046983;28;20020;-61
2022/06/04 12:17:48;;;;;;;7.35;4.97;;;27.30;99.90;;;;;;5062364;28;20033;-62
2022/06/04 12:26:34;;;;;;;7.90;4.90;;;28.00;99.90;;;;;;5073175;28;20077;-61
2022/06/04 12:29:01;;;;;;;5.22;4.63;;;28.20;99.90;;;;;;5069226;28;20028;-58
2022/06/04 12:31:34;;;;;;;5.80;5.05;;;28.60;99.90;;;;;;5063075;28;20024;-60
2022/06/04 12:34:01;;;;;;;5.15;4.65;;;28.70;99.90;;;;;;5070339;28;20119;-63
2022/06/04 12:36:36;;;;;;;8.75;4.32;;;28.90;99.90;;;;;;5070491;28;20016;-58
2022/06/04 12:39:22;;;;;;;5.78;4.60;;;28.70;99.90;;;;;;5066582;28;20137;-62
2022/06/04 12:41:55;;;;;;;9.88;4.95;;;28.90;99.90;;;;;;5032901;28;20063;-58
2022/06/04 12:44:26;;;;;;;5.88;4.63;;;29.10;99.90;;;;;;5071007;28;20032;-62
2022/06/04 12:46:53;;;;;;;6.10;4.50;;;29.40;99.90;;;;;;5069845;28;20042;-65
2022/06/04 12:49:29;;;;;;;5.45;4.25;;;29.50;99.90;;;;;;5069191;28;20096;-61
2022/06/04 12:52:19;;;;;;;8.38;3.95;;;29.60;99.90;;;;;;5053062;28;20032;-62
2022/06/04 12:54:51;;;;;;;7.47;5.18;;;29.70;99.90;;;;;;5059518;28;20028;-64
2022/06/04 12:57:40;;;;;;;5.68;4.18;;;29.00;99.90;;;;;;5070009;28;20044;-62
2022/06/04 13:00:18;;;;;;;7.57;4.70;;;28.70;99.90;;;;;;5067662;28;20043;-64
2022/06/04 13:02:57;;;;;;;7.45;4.22;;;29.00;99.90;;;;;;5067538;28;20025;-64
2022/06/04 13:05:28;;;;;;;5.85;4.82;;;29.40;99.90;;;;;;5062791;28;20029;-62
2022/06/04 13:08:25;;;;;;;6.72;5.15;;;29.40;99.90;;;;;;5068175;28;20055;-64
2022/06/04 13:11:24;;;;;;;7.68;5.20;;;28.70;99.90;;;;;;5063847;28;20021;-64
2022/06/04 13:13:58;;;;;;;5.07;4.53;;;28.40;99.90;;;;;;5064195;28;20021;-64
2022/06/04 13:16:29;;;;;;;8.40;5.53;;;29.20;99.90;;;;;;5064564;28;20032;-64
2022/06/04 13:19:09;;;;;;;5.70;4.63;;;29.60;99.90;;;;;;5061305;28;20028;-63
2022/06/04 13:21:37;;;;;;;4.97;4.47;;;29.30;99.90;;;;;;5061903;28;20040;-65
2022/06/04 13:24:17;;;;;;;5.20;4.68;;;29.80;99.90;;;;;;5064831;28;20036;-63
2022/06/04 13:27:02;;;;;;;5.55;4.15;;;29.80;99.90;;;;;;5067112;28;20137;-63
2022/06/04 13:29:34;;;;;;;6.82;5.20;;;30.00;99.90;;;;;;5061850;28;20032;-65
2022/06/04 13:32:04;;;;;;;6.53;4.78;;;30.10;99.90;;;;;;5064476;28;20508;-63